Wetterdaten: August 2009
Datum Temp. A. Feuchte A. Luftdruck Regen Wind Richtung Taupunkt Windchill Windben
01.08.2009 21,1 C 64 % 1013 hPa 0,0 l/m 1,9 km/h W-NW 13,8 C 21,1 C 8,4 km/h
02.08.2009 20,9 C 72 % 1011 hPa 1,0 l/m 14,1 km/h W-NW 15,4 C 18,6 C 20,6 km/h
03.08.2009 20,0 C 67 % 1014 hPa 0,0 l/m 3,7 km/h W-NW 13,5 C 19,4 C 10,2 km/h
04.08.2009 19,3 C 62 % 1019 hPa 0,0 l/m 11,7 km/h N-NO 11,4 C 17,0 C 18,2 km/h
05.08.2009 19,8 C 62 % 1019 hPa 0,0 l/m 0,0 km/h N-NO 11,8 C 19,8 C 6,5 km/h
06.08.2009 21,7 C 62 % 1018 hPa 0,0 l/m 4,9 km/h O 13,6 C 21,3 C 11,4 km/h
07.08.2009 22,0 C 61 % 1016 hPa 0,0 l/m 6,1 km/h O-NO 13,8 C 21,6 C 12,6 km/h
08.08.2009 22,9 C 61 % 1015 hPa 0,5 l/m 3,1 km/h NO 14,3 C 22,8 C 9,6 km/h
09.08.2009 23,3 C 62 % 1014 hPa 0,0 l/m 11,8 km/h N-NO 15,3 C 22,1 C 18,3 km/h
10.08.2009 19,8 C 81 % 1014 hPa 1,0 l/m 11,6 km/h W-NW 16,4 C 17,9 C 18,1 km/h
11.08.2009 19,9 C 75 % 1017 hPa 1,6 l/m 10,4 km/h W-NW 15,2 C 18,7 C 24,4 km/h
12.08.2009 20,8 C 69 % 1017 hPa 0,0 l/m 2,4 km/h W-NW 14,7 C 20,5 C 8,9 km/h
13.08.2009 18,8 C 82 % 1014 hPa 4,7 l/m 1,3 km/h W-NW 15,6 C 18,8 C 7,8 km/h
14.08.2009 19,1 C 74 % 1016 hPa 0,0 l/m 0,0 km/h N-NO 14,2 C 19,1 C 6,5 km/h
15.08.2009 21,1 C 69 % 1016 hPa 0,0 l/m 5,6 km/h NO 14,9 C 20,8 C 12,1 km/h
16.08.2009 21,9 C 75 % 1014 hPa 4,7 l/m 6,8 km/h O-NO 16,3 C 21,7 C 13,3 km/h
17.08.2009 21,8 C 78 % 1013 hPa 7,3 l/m 10,4 km/h NO 17,4 C 21,1 C 17,0 km/h
18.08.2009 21,0 C 70 % 1019 hPa 0,0 l/m 11,7 km/h N-NO 14,8 C 20,2 C 18,2 km/h
19.08.2009 22,6 C 66 % 1020 hPa 0,0 l/m 21,0 km/h O 15,5 C 20,6 C 27,5 km/h
20.08.2009 25,4 C 61 % 1018 hPa 0,0 l/m 14,3 km/h O-NO 16,6 C 24,2 C 20,8 km/h
21.08.2009 21,2 C 77 % 1018 hPa 4,1 l/m 0,0 km/h W-NW 16,9 C 21,2 C 6,5 km/h
22.08.2009 17,5 C 69 % 1022 hPa 0,0 l/m 13,0 km/h N-NO 11,7 C 14,9 C 19,5 km/h
23.08.2009 16,6 C 70 % 1022 hPa 0,0 l/m 8,6 km/h N-NO 10,9 C 15,2 C 15,1 km/h
24.08.2009 21,1 C 65 % 1010 hPa 0,0 l/m 9,4 km/h NO 13,7 C 20,1 C 12,3 km/h
25.08.2009 23,2 C 66 % 1011 hPa 1,0 l/m 4,2 km/h W-NW 15,9 C 23,1 C 7,1 km/h
26.08.2009 20,1 C 81 % 1015 hPa 0,0 l/m 3,2 km/h NO 16,6 C 19,7 C 6,1 km/h
27.08.2009 22,5 C 63 % 1015 hPa 0,0 l/m 4,5 km/h W-NW 14,3 C 22,5 C 7,4 km/h
28.08.2009 21,1 C 61 % 1013 hPa 0,0 l/m 5,9 km/h W-NW 13,0 C 20,7 C 8,8 km/h
29.08.2009 16,6 C 57 % 1019 hPa 0,0 l/m 6,2 km/h W-NW 7,8 C 15,5 C 9,1 km/h
30.08.2009 16,4 C 55 % 1020 hPa 0,0 l/m 2,3 km/h NO 6,6 C 16,4 C 3,8 km/h
31.08.2009 17,9 C 52 % 1017 hPa 0,0 l/m 6,6 km/h NO 7,0 C 17,5 C 7,6 km/h
Min-Datum 30.08.09 31.08.09 02.08.09 9 Tage 01.08.09 - 30.08.09 30.08.09 30.08.09
Min-Zeit 06:25 15:10 05:40 - 00:00 - 07:05 08:25 11:50
Minimum 7,9 C 30 % 1008 hPa - 0,0 km/h - 4,8 C 1,3 C 1,0 km/h
Max-Datum 20.08.09 11.08.09 22.08.09 17.08.09 01.08.09 - 17.08.09 20.08.09 17.08.09
Max-Zeit 15:30 09:30 23:50 17:30 11:50 - 14:00 15:30 17:25
Maximum 33,8 C 91 % 1024 hPa 7,3 l/m 118,4 km/h
W-NW
- 20,7 C 33,8 C 203,9 km/h
NO
Durchschnitt 20,6 C 67 % 1016 hPa #25,9 l/m 7,0 km/h NO 13,8 C 19,8 C 12,7 km/h

Durchschnitt Minimum Temp.14,5 C
Durchschnitt Maximum Temp.27,1 C